createdAt,value
2022-08-05T00:06:41.242Z,19.30
2022-08-05T00:09:13.214Z,19.30
2022-08-05T00:11:48.349Z,19.30
2022-08-05T00:18:09.245Z,19.20
2022-08-05T00:20:54.971Z,19.20
2022-08-05T00:31:04.391Z,19.00
2022-08-05T01:37:44.294Z,18.60
2022-08-05T01:40:14.208Z,18.50
2022-08-05T01:47:02.054Z,18.50
2022-08-05T01:50:00.215Z,18.50
2022-08-05T01:58:11.440Z,18.40
2022-08-05T01:59:22.235Z,18.40
2022-08-05T02:18:32.485Z,18.20
2022-08-05T02:25:13.461Z,18.10
2022-08-05T02:27:59.172Z,18.10
2022-08-05T02:38:53.126Z,18.00
2022-08-05T02:41:23.591Z,18.00
2022-08-05T05:02:07.058Z,19.30
2022-08-05T05:04:27.646Z,19.20
2022-08-05T05:06:57.696Z,19.20
2022-08-05T05:09:26.547Z,19.30
2022-08-05T05:16:06.149Z,19.30
2022-08-05T05:18:36.108Z,19.40
2022-08-05T05:21:06.569Z,19.40
2022-08-05T05:27:53.968Z,19.40
2022-08-05T05:30:30.640Z,19.50
2022-08-05T05:41:40.150Z,19.80
2022-08-05T05:44:15.684Z,20.00
2022-08-05T05:47:03.991Z,20.00
2022-08-05T05:49:33.748Z,20.20
2022-08-05T05:56:07.249Z,20.30
2022-08-05T05:58:38.937Z,20.50
2022-08-05T06:01:13.293Z,20.60
2022-08-05T06:08:01.746Z,20.70
2022-08-05T06:14:48.780Z,20.90
2022-08-05T06:17:53.152Z,21.10
2022-08-05T06:20:21.281Z,21.20
2022-08-05T06:22:56.299Z,21.30
2022-08-05T06:26:12.507Z,21.40
2022-08-05T06:28:21.306Z,21.50
2022-08-05T06:30:58.463Z,21.50
2022-08-05T06:34:07.117Z,21.70
2022-08-05T06:40:50.659Z,21.90
2022-08-05T06:48:46.945Z,22.10
2022-08-05T06:50:33.961Z,22.20
2022-08-05T06:53:11.457Z,22.30
2022-08-05T06:56:01.259Z,22.30
2022-08-05T06:58:36.168Z,22.50
2022-08-05T07:03:41.081Z,22.60
2022-08-05T07:06:15.081Z,22.70
2022-08-05T07:08:47.813Z,22.80
2022-08-05T07:11:31.166Z,22.90
2022-08-05T07:14:20.587Z,22.90
2022-08-05T07:22:48.710Z,23.20
2022-08-05T07:25:54.181Z,23.30
2022-08-05T07:28:11.597Z,23.40
2022-08-05T07:30:40.791Z,23.40
2022-08-05T07:33:16.566Z,23.40
2022-08-05T07:36:04.264Z,23.40
2022-08-05T07:38:43.467Z,23.50
2022-08-05T07:42:06.863Z,23.60
2022-08-05T07:44:03.278Z,23.70
2022-08-05T07:46:33.789Z,23.70
2022-08-05T07:49:05.802Z,23.80
2022-08-05T07:52:03.543Z,23.80
2022-08-05T07:54:38.665Z,23.90
2022-08-05T07:57:14.553Z,24.00
2022-08-05T07:59:59.132Z,24.10
2022-08-05T08:02:31.269Z,24.20
2022-08-05T08:05:26.384Z,24.30
2022-08-05T08:07:59.640Z,24.40
2022-08-05T08:10:31.397Z,24.50
2022-08-05T08:13:07.305Z,24.50
2022-08-05T08:16:35.318Z,24.60
2022-08-05T08:18:37.578Z,24.60
2022-08-05T08:21:09.705Z,24.70
2022-08-05T08:24:01.502Z,24.80
2022-08-05T08:31:27.553Z,24.90
2022-08-05T08:38:06.544Z,25.10
2022-08-05T08:40:36.859Z,25.20
2022-08-05T08:45:20.090Z,25.30
2022-08-05T08:46:29.988Z,25.40
2022-08-05T08:50:23.167Z,25.50
2022-08-05T08:52:03.526Z,25.60
2022-08-05T08:54:42.694Z,25.60
2022-08-05T08:57:17.680Z,25.70
2022-08-05T08:59:48.993Z,25.70
2022-08-05T09:03:03.838Z,25.80
2022-08-05T09:05:39.005Z,25.90
2022-08-05T09:08:21.377Z,26.10
2022-08-05T09:10:58.025Z,26.10
2022-08-05T09:22:23.204Z,26.40
2022-08-05T09:24:34.334Z,26.70
2022-08-05T09:27:09.428Z,26.80
2022-08-05T09:29:44.783Z,26.90
2022-08-05T09:36:11.825Z,27.10
2022-08-05T09:38:57.243Z,27.20
2022-08-05T09:41:26.505Z,27.30
2022-08-05T09:44:08.046Z,27.40
2022-08-05T09:46:53.614Z,27.40
2022-08-05T09:49:54.779Z,27.50
2022-08-05T09:52:19.571Z,27.60
2022-08-05T09:55:57.495Z,27.70
2022-08-05T09:58:11.671Z,27.80
2022-08-05T10:00:41.799Z,27.90
2022-08-05T10:03:16.569Z,28.00
2022-08-05T10:05:49.533Z,28.00
2022-08-05T10:08:36.229Z,28.10
2022-08-05T10:11:14.920Z,28.10
2022-08-05T10:13:48.213Z,28.20
2022-08-05T10:16:41.553Z,28.30
2022-08-05T10:19:23.693Z,28.40
2022-08-05T10:22:30.023Z,28.50
2022-08-05T10:24:59.883Z,28.60
2022-08-05T10:28:13.723Z,28.80
2022-08-05T10:32:49.465Z,28.80
2022-08-05T10:33:45.500Z,28.90
2022-08-05T10:36:23.726Z,28.90
2022-08-05T10:39:59.311Z,28.90
2022-08-05T10:42:18.375Z,28.90
2022-08-05T10:44:48.148Z,29.00
2022-08-05T10:47:26.920Z,29.00
2022-08-05T10:50:32.837Z,29.00
2022-08-05T10:53:00.414Z,29.10
2022-08-05T10:56:03.389Z,29.10
2022-08-05T10:58:48.577Z,29.20
2022-08-05T11:01:28.503Z,29.30
2022-08-05T11:04:09.607Z,29.40
2022-08-05T11:06:58.629Z,29.50
2022-08-05T11:09:39.109Z,29.60
2022-08-05T11:12:37.473Z,29.60
2022-08-05T11:15:19.950Z,29.70
2022-08-05T11:18:09.732Z,29.70
2022-08-05T11:20:43.844Z,29.70
2022-08-05T11:24:03.229Z,29.70
2022-08-05T11:26:33.023Z,29.70
2022-08-05T11:29:06.914Z,29.90
2022-08-05T11:31:57.835Z,29.90
2022-08-05T11:34:47.614Z,30.00
2022-08-05T11:38:30.748Z,30.10
2022-08-05T11:40:51.590Z,30.10
2022-08-05T11:44:04.682Z,30.20
2022-08-05T11:46:58.196Z,30.30
2022-08-05T11:49:29.065Z,30.30
2022-08-05T11:52:08.794Z,30.50
2022-08-05T11:54:54.722Z,30.30
2022-08-05T11:57:30.736Z,30.30
2022-08-05T12:00:28.727Z,30.40
2022-08-05T12:02:59.969Z,30.50
2022-08-05T12:05:36.228Z,30.60
2022-08-05T12:08:11.427Z,30.00
2022-08-05T12:10:45.371Z,30.80
2022-08-05T12:15:57.267Z,30.90
2022-08-05T12:18:38.792Z,31.00
2022-08-05T12:21:18.073Z,30.90
2022-08-05T12:24:04.217Z,30.90
2022-08-05T12:26:33.614Z,31.00
2022-08-05T12:29:03.332Z,31.00
2022-08-05T12:31:44.900Z,31.00
2022-08-05T12:34:21.455Z,31.10
2022-08-05T12:36:54.026Z,31.10
2022-08-05T12:39:34.342Z,31.10
2022-08-05T12:42:14.837Z,31.00
2022-08-05T12:44:44.796Z,31.00
2022-08-05T12:47:17.167Z,31.00
2022-08-05T12:50:04.252Z,31.00
2022-08-05T12:56:51.035Z,31.00
2022-08-05T12:59:27.761Z,31.00
2022-08-05T13:02:13.417Z,30.90
2022-08-05T13:04:54.752Z,30.80
2022-08-05T13:10:32.997Z,30.60
2022-08-05T13:17:31.896Z,30.50
2022-08-05T13:20:12.191Z,30.30
2022-08-05T13:22:46.940Z,30.20
2022-08-05T13:25:19.017Z,30.20
2022-08-05T13:27:57.778Z,30.20
2022-08-05T13:30:33.725Z,30.10
2022-08-05T13:33:14.164Z,30.10
2022-08-05T13:35:51.634Z,30.10
2022-08-05T13:38:30.448Z,30.20
2022-08-05T13:41:08.402Z,30.10
2022-08-05T13:43:45.825Z,30.10
2022-08-05T13:46:50.906Z,30.10
2022-08-05T13:49:12.990Z,30.10
2022-08-05T13:51:46.175Z,30.20
2022-08-05T13:54:21.058Z,30.20
2022-08-05T13:56:53.993Z,30.20
2022-08-05T13:59:27.005Z,30.30
2022-08-05T14:01:58.649Z,30.30
2022-08-05T14:04:49.565Z,30.40
2022-08-05T14:08:00.367Z,30.30
2022-08-05T14:10:18.418Z,30.20
2022-08-05T14:12:57.168Z,30.20
2022-08-05T14:16:08.567Z,30.20
2022-08-05T14:18:23.271Z,30.30
2022-08-05T14:20:58.294Z,30.30
2022-08-05T14:23:37.317Z,30.40
2022-08-05T14:26:07.188Z,30.50
2022-08-05T14:29:01.772Z,30.60
2022-08-05T14:32:02.164Z,30.70
2022-08-05T14:34:35.086Z,30.60
2022-08-05T14:37:06.186Z,30.70
2022-08-05T14:39:49.726Z,30.70
2022-08-05T14:42:27.010Z,30.70
2022-08-05T14:44:56.694Z,30.60
2022-08-05T14:48:04.991Z,30.70
2022-08-05T14:50:19.124Z,30.80
2022-08-05T14:56:54.736Z,31.00
2022-08-05T14:59:23.932Z,31.30
2022-08-05T15:01:53.889Z,31.50
2022-08-05T15:08:59.233Z,31.90
2022-08-05T15:11:53.105Z,31.90
2022-08-05T15:14:50.520Z,31.80
2022-08-05T15:21:43.417Z,31.70
2022-08-05T15:28:29.859Z,31.40
2022-08-05T15:30:58.736Z,31.20
2022-08-05T15:34:19.541Z,31.00
2022-08-05T15:36:44.894Z,30.90
2022-08-05T15:41:03.891Z,30.90
2022-08-05T15:42:02.870Z,31.00
2022-08-05T15:49:10.791Z,30.80
2022-08-05T15:52:04.345Z,30.80
2022-08-05T15:58:46.561Z,30.50
2022-08-05T16:01:17.629Z,30.20
2022-08-05T16:18:13.735Z,29.10
2022-08-05T16:20:43.395Z,29.00
2022-08-05T16:27:47.443Z,28.80
2022-08-05T16:30:28.912Z,28.70
2022-08-05T16:41:00.136Z,28.30
2022-08-05T16:43:36.630Z,28.20
2022-08-05T16:46:23.710Z,28.00
2022-08-05T16:48:55.845Z,28.00
2022-08-05T16:51:24.974Z,27.80
2022-08-05T16:54:15.966Z,27.70
2022-08-05T16:56:52.200Z,27.70
2022-08-05T16:59:21.091Z,27.60
2022-08-05T17:01:53.563Z,27.50
2022-08-05T17:04:26.518Z,27.50
2022-08-05T17:06:56.925Z,27.40
2022-08-05T17:09:29.611Z,27.40
2022-08-05T17:12:00.402Z,27.40
2022-08-05T17:14:37.407Z,27.30
2022-08-05T17:17:09.308Z,27.30
2022-08-05T17:19:46.296Z,27.20
2022-08-05T17:22:25.125Z,27.10
2022-08-05T17:24:57.553Z,27.00
2022-08-05T17:27:33.759Z,27.00
2022-08-05T17:30:12.272Z,26.90
2022-08-05T17:32:48.840Z,26.90
2022-08-05T17:35:32.443Z,26.80
2022-08-05T17:38:25.553Z,26.80
2022-08-05T17:40:55.459Z,26.70
2022-08-05T17:43:50.518Z,26.70
2022-08-05T17:46:18.279Z,26.70
2022-08-05T17:48:47.752Z,26.60
2022-08-05T17:51:21.711Z,26.60
2022-08-05T17:53:55.736Z,26.50
2022-08-05T17:56:28.424Z,26.50
2022-08-05T17:58:58.776Z,26.50
2022-08-05T18:01:49.323Z,26.40
2022-08-05T18:04:21.113Z,26.30
2022-08-05T18:06:55.861Z,26.30
2022-08-05T18:10:00.162Z,26.20
2022-08-05T18:12:26.293Z,26.10
2022-08-05T18:14:58.346Z,26.10
2022-08-05T18:18:00.440Z,26.00
2022-08-05T18:20:17.885Z,25.90
2022-08-05T18:31:33.958Z,25.50
2022-08-05T18:34:40.713Z,25.50
2022-08-05T18:41:50.074Z,25.30
2022-08-05T18:42:33.074Z,25.30
2022-08-05T18:45:02.425Z,25.20
2022-08-05T18:47:34.235Z,25.10
2022-08-05T18:50:19.810Z,25.10
2022-08-05T18:57:24.030Z,24.90
2022-08-05T19:00:01.815Z,24.80
2022-08-05T19:02:38.349Z,24.80
2022-08-05T19:06:05.482Z,24.70
2022-08-05T19:08:44.068Z,24.70
2022-08-05T19:11:21.914Z,24.60
2022-08-05T19:14:01.806Z,24.50
2022-08-05T19:16:44.998Z,24.40
2022-08-05T19:19:21.002Z,24.40
2022-08-05T19:26:04.470Z,24.30
2022-08-05T19:28:41.469Z,24.30
2022-08-05T19:31:13.401Z,24.30
2022-08-05T19:33:48.694Z,24.30
2022-08-05T19:36:26.337Z,24.30
2022-08-05T19:39:01.006Z,24.30
2022-08-05T19:41:58.124Z,24.30
2022-08-05T19:44:25.472Z,24.30
2022-08-05T19:46:59.777Z,24.20
2022-08-05T19:49:28.465Z,24.20
2022-08-05T19:52:09.178Z,24.20
2022-08-05T19:54:55.277Z,24.20
2022-08-05T19:57:46.352Z,24.20
2022-08-05T20:00:13.709Z,24.20
2022-08-05T20:02:51.252Z,24.10
2022-08-05T20:09:25.573Z,24.10
2022-08-05T20:11:54.318Z,24.10
2022-08-05T20:18:40.244Z,24.10
2022-08-05T20:21:09.398Z,24.00
2022-08-05T20:32:04.318Z,23.90
2022-08-05T20:34:34.823Z,23.90
2022-08-05T20:37:17.753Z,23.80
2022-08-05T20:39:51.453Z,23.70
2022-08-05T20:42:21.539Z,23.80
2022-08-05T20:44:57.595Z,23.70
2022-08-05T20:47:31.774Z,23.70
2022-08-05T20:50:07.501Z,23.80
2022-08-05T20:52:41.474Z,23.70
2022-08-05T20:55:56.532Z,23.70
2022-08-05T20:58:04.158Z,23.80
2022-08-05T21:00:41.563Z,23.70
2022-08-05T21:03:24.949Z,23.70
2022-08-05T21:05:55.582Z,23.70
2022-08-05T21:08:41.530Z,23.70
2022-08-05T21:12:10.128Z,23.70
2022-08-05T21:14:05.790Z,23.70
2022-08-05T21:17:04.856Z,23.70
2022-08-05T21:23:49.820Z,23.70
2022-08-05T21:26:18.882Z,23.60
2022-08-05T21:28:50.845Z,23.60
2022-08-05T21:31:19.951Z,23.60
2022-08-05T21:34:55.884Z,23.50
2022-08-05T21:37:41.377Z,23.50
2022-08-05T21:40:13.852Z,23.40
2022-08-05T21:42:44.296Z,23.40
2022-08-05T21:49:48.247Z,23.40
2022-08-05T21:53:16.055Z,23.40
2022-08-05T21:56:05.015Z,23.40
2022-08-05T21:58:36.714Z,23.30
2022-08-05T22:01:11.356Z,23.30
2022-08-05T22:04:20.916Z,23.20
2022-08-05T22:06:54.172Z,23.20
2022-08-05T22:09:48.485Z,23.20
2022-08-05T22:12:26.386Z,23.20
2022-08-05T22:19:00.272Z,23.10
2022-08-05T22:21:29.532Z,23.10
2022-08-05T22:24:52.333Z,23.10
2022-08-05T22:28:08.390Z,23.10
2022-08-05T22:30:55.946Z,23.10
2022-08-05T22:40:49.629Z,22.80
2022-08-05T22:43:53.452Z,22.80
2022-08-05T22:46:25.848Z,22.80
2022-08-05T22:56:56.424Z,22.80
2022-08-05T22:59:46.423Z,22.80
2022-08-05T23:10:44.656Z,22.80
2022-08-05T23:13:13.206Z,22.70
2022-08-05T23:15:41.801Z,22.70
2022-08-05T23:18:15.939Z,22.70
2022-08-05T23:20:45.036Z,22.70
2022-08-05T23:27:20.113Z,22.60
2022-08-05T23:29:51.563Z,22.60
2022-08-05T23:36:39.530Z,22.60
2022-08-05T23:39:10.145Z,22.70
2022-08-05T23:41:48.437Z,22.70
2022-08-05T23:48:33.042Z,22.70
2022-08-05T23:51:03.292Z,22.70
2022-08-05T23:54:18.370Z,22.60
